Terminal Aerodrome Forecast
Issued by NWS

Home | Current Version | Previous Version | Text Only | Print | Product List | Glossary On
Versions: 1 2 3 4 5 6 7 8 9 10 11 12 13 14 15 16 17 18 19 20 21 22 23 24 25 26 27 28
720
FTUS41 KOKX 051545 AAC
TAFHPN
TAF AMD
KHPN 051545Z 0516/0612 26006KT P6SM BKN010 BKN020
      TEMPO 0517/0518 SCT010
     FM051800 28010KT P6SM SCT020 BKN050
     FM052100 30008KT P6SM SCT250
     FM060600 33006KT P6SM SKC
      AMD NOT SKED=

USA.gov is the U.S. government's official web portal to all federal, state and local government web resources and services.